DLH17A EDDM-LIMC
Flight info
| Callsign | DLH17A |
|---|---|
| Flight time | 1h 10m |
| Altitude | 24000 |
| Route | MERSI4E/08R MERSI Y100 ATMAX Z999 KPT/N0355F230 Z999 BEMKI L607 XEBIX Y740 NATAG DCT LORLO DCT ATPED DCT LUSIL DCT EVRIP |
| Aircraft | A320/M-SDE2E3FGIJ1LORWXYZ/HB1 |
Departure
| Time | 2026-05-06 13:14 |
|---|---|
| Airport | Munich Airport (EDDM) |
Arrival
| Time | 2026-05-06 14:25 |
|---|---|
| Airport | Milan Malpensa International Airport (LIMC) |
| Time | Latitude | Longitude | Altitude | Speed | Heading |
|---|---|---|---|---|---|
| 2026-05-06 12:32 | 48.35693 | 11.79694 | 1471 ft | 0 kts | 83° |
| 2026-05-06 12:58 | 48.35691 | 11.79665 | 1474 ft | 4 kts | 83° |
| 2026-05-06 12:58 | 48.35688 | 11.79625 | 1473 ft | 4 kts | 83° |
| 2026-05-06 12:58 | 48.35686 | 11.79593 | 1476 ft | 4 kts | 94° |
| 2026-05-06 12:58 | 48.35693 | 11.79557 | 1471 ft | 4 kts | 138° |
| 2026-05-06 12:59 | 48.35714 | 11.79545 | 1475 ft | 4 kts | 173° |
| 2026-05-06 12:59 | 48.35724 | 11.79543 | 1473 ft | 0 kts | 173° |
| 2026-05-06 13:03 | 48.35722 | 11.79543 | 1485 ft | 2 kts | 173° |
| 2026-05-06 13:03 | 48.35685 | 11.79546 | 1485 ft | 8 kts | 184° |
| 2026-05-06 13:04 | 48.35610 | 11.79510 | 1478 ft | 13 kts | 197° |
| 2026-05-06 13:04 | 48.35527 | 11.79509 | 1482 ft | 11 kts | 172° |
| 2026-05-06 13:04 | 48.35454 | 11.79523 | 1473 ft | 10 kts | 173° |
| 2026-05-06 13:04 | 48.35373 | 11.79536 | 1485 ft | 15 kts | 173° |
| 2026-05-06 13:05 | 48.35263 | 11.79555 | 1485 ft | 16 kts | 173° |
| 2026-05-06 13:05 | 48.35152 | 11.79574 | 1485 ft | 14 kts | 173° |
| 2026-05-06 13:05 | 48.35060 | 11.79590 | 1483 ft | 13 kts | 173° |
| 2026-05-06 13:05 | 48.34990 | 11.79572 | 1474 ft | 7 kts | 211° |
| 2026-05-06 13:06 | 48.34954 | 11.79546 | 1480 ft | 2 kts | 191° |
| 2026-05-06 13:06 | 48.34953 | 11.79546 | 1480 ft | 0 kts | 191° |
| 2026-05-06 13:08 | 48.34892 | 11.79552 | 1482 ft | 20 kts | 173° |
| 2026-05-06 13:08 | 48.34786 | 11.79488 | 1479 ft | 18 kts | 259° |
| 2026-05-06 13:08 | 48.34772 | 11.79305 | 1485 ft | 17 kts | 263° |
| 2026-05-06 13:09 | 48.34758 | 11.79119 | 1485 ft | 20 kts | 263° |
| 2026-05-06 13:09 | 48.34741 | 11.78905 | 1485 ft | 21 kts | 263° |
| 2026-05-06 13:09 | 48.34725 | 11.78693 | 1485 ft | 21 kts | 263° |
| 2026-05-06 13:09 | 48.34708 | 11.78473 | 1480 ft | 22 kts | 263° |
| 2026-05-06 13:10 | 48.34690 | 11.78237 | 1485 ft | 23 kts | 263° |
| 2026-05-06 13:10 | 48.34671 | 11.77989 | 1485 ft | 25 kts | 263° |
| 2026-05-06 13:10 | 48.34650 | 11.77725 | 1473 ft | 26 kts | 263° |
| 2026-05-06 13:10 | 48.34628 | 11.77443 | 1485 ft | 27 kts | 263° |
| 2026-05-06 13:11 | 48.34607 | 11.77166 | 1480 ft | 27 kts | 263° |
| 2026-05-06 13:11 | 48.34584 | 11.76878 | 1485 ft | 26 kts | 263° |
| 2026-05-06 13:11 | 48.34565 | 11.76620 | 1473 ft | 25 kts | 263° |
| 2026-05-06 13:11 | 48.34544 | 11.76351 | 1483 ft | 27 kts | 263° |
| 2026-05-06 13:12 | 48.34523 | 11.76065 | 1473 ft | 28 kts | 263° |
| 2026-05-06 13:12 | 48.34499 | 11.75770 | 1485 ft | 29 kts | 263° |
| 2026-05-06 13:12 | 48.34479 | 11.75501 | 1479 ft | 25 kts | 263° |
| 2026-05-06 13:12 | 48.34460 | 11.75267 | 1483 ft | 16 kts | 261° |
| 2026-05-06 13:13 | 48.34394 | 11.75221 | 1485 ft | 10 kts | 174° |
| 2026-05-06 13:13 | 48.34286 | 11.75240 | 1485 ft | 19 kts | 173° |
| 2026-05-06 13:13 | 48.34150 | 11.75263 | 1474 ft | 19 kts | 173° |
| 2026-05-06 13:13 | 48.34086 | 11.75318 | 1482 ft | 10 kts | 96° |
| 2026-05-06 13:14 | 48.34097 | 11.75481 | 1485 ft | 36 kts | 83° |
| 2026-05-06 13:14 | 48.34157 | 11.76233 | 1486 ft | 108 kts | 84° |
| 2026-05-06 13:14 | 48.34269 | 11.77647 | 1532 ft | 156 kts | 83° |
| 2026-05-06 13:14 | 48.34374 | 11.79238 | 2222 ft | 156 kts | 84° |
| 2026-05-06 13:15 | 48.34485 | 11.80929 | 2828 ft | 169 kts | 83° |
| 2026-05-06 13:15 | 48.34624 | 11.82795 | 3230 ft | 190 kts | 83° |
| 2026-05-06 13:15 | 48.34786 | 11.84888 | 3596 ft | 214 kts | 83° |
| 2026-05-06 13:15 | 48.34968 | 11.87234 | 4124 ft | 234 kts | 83° |
| 2026-05-06 13:16 | 48.35161 | 11.89698 | 5023 ft | 240 kts | 84° |
| 2026-05-06 13:16 | 48.35359 | 11.92230 | 5887 ft | 248 kts | 85° |
| 2026-05-06 13:16 | 48.35282 | 11.94793 | 6651 ft | 252 kts | 111° |
| 2026-05-06 13:16 | 48.34356 | 11.96974 | 7478 ft | 251 kts | 141° |
| 2026-05-06 13:17 | 48.32993 | 11.98615 | 8417 ft | 252 kts | 145° |
| 2026-05-06 13:17 | 48.31595 | 12.00238 | 9349 ft | 255 kts | 146° |
| 2026-05-06 13:17 | 48.30131 | 12.01744 | 10207 ft | 256 kts | 158° |
| 2026-05-06 13:17 | 48.28442 | 12.02577 | 10941 ft | 261 kts | 174° |
| 2026-05-06 13:18 | 48.26581 | 12.02628 | 11444 ft | 273 kts | 186° |
| 2026-05-06 13:18 | 48.24658 | 12.02465 | 12232 ft | 279 kts | 186° |
| 2026-05-06 13:18 | 48.22716 | 12.02342 | 13091 ft | 282 kts | 185° |
| 2026-05-06 13:18 | 48.20771 | 12.02234 | 13899 ft | 284 kts | 185° |
| 2026-05-06 13:19 | 48.18784 | 12.02131 | 14678 ft | 286 kts | 185° |
| 2026-05-06 13:19 | 48.16789 | 12.02027 | 15456 ft | 288 kts | 185° |
| 2026-05-06 13:19 | 48.14782 | 12.01923 | 16244 ft | 289 kts | 185° |
| 2026-05-06 13:19 | 48.12762 | 12.01813 | 17027 ft | 291 kts | 185° |
| 2026-05-06 13:20 | 48.10735 | 12.01622 | 17713 ft | 294 kts | 192° |
| 2026-05-06 13:20 | 48.08812 | 12.00603 | 18341 ft | 296 kts | 211° |
| 2026-05-06 13:20 | 48.07234 | 11.98631 | 19037 ft | 299 kts | 228° |
| 2026-05-06 13:20 | 48.06192 | 11.95919 | 19717 ft | 307 kts | 246° |
| 2026-05-06 13:21 | 48.05640 | 11.92843 | 20387 ft | 311 kts | 251° |
| 2026-05-06 13:21 | 48.05116 | 11.89701 | 21009 ft | 315 kts | 251° |
| 2026-05-06 13:21 | 48.04592 | 11.86490 | 21587 ft | 318 kts | 251° |
| 2026-05-06 13:21 | 48.04060 | 11.83285 | 22281 ft | 318 kts | 251° |
| 2026-05-06 13:22 | 48.03522 | 11.80069 | 22950 ft | 320 kts | 251° |
| 2026-05-06 13:22 | 48.02974 | 11.76836 | 23521 ft | 322 kts | 250° |
| 2026-05-06 13:22 | 48.02420 | 11.73594 | 23700 ft | 322 kts | 250° |
| 2026-05-06 13:22 | 48.01861 | 11.70325 | 23752 ft | 327 kts | 250° |
| 2026-05-06 13:23 | 48.01317 | 11.67017 | 23755 ft | 330 kts | 254° |
| 2026-05-06 13:23 | 48.01076 | 11.63582 | 23760 ft | 335 kts | 260° |
| 2026-05-06 13:23 | 48.00924 | 11.60150 | 23766 ft | 335 kts | 260° |
| 2026-05-06 13:23 | 48.00769 | 11.56685 | 23769 ft | 335 kts | 260° |
| 2026-05-06 13:24 | 48.00611 | 11.53216 | 23802 ft | 335 kts | 260° |
| 2026-05-06 13:24 | 48.00448 | 11.49731 | 23779 ft | 336 kts | 260° |
| 2026-05-06 13:24 | 48.00284 | 11.46245 | 23775 ft | 337 kts | 260° |
| 2026-05-06 13:24 | 48.00120 | 11.42758 | 23782 ft | 337 kts | 260° |
| 2026-05-06 13:25 | 47.99952 | 11.39260 | 23777 ft | 337 kts | 260° |
| 2026-05-06 13:25 | 47.99784 | 11.35773 | 23780 ft | 337 kts | 260° |
| 2026-05-06 13:25 | 47.99617 | 11.32328 | 23780 ft | 337 kts | 260° |
| 2026-05-06 13:25 | 47.99447 | 11.28837 | 23779 ft | 337 kts | 260° |
| 2026-05-06 13:26 | 47.99276 | 11.25358 | 23779 ft | 337 kts | 260° |
| 2026-05-06 13:26 | 47.99104 | 11.21876 | 23776 ft | 336 kts | 260° |
| 2026-05-06 13:26 | 47.98931 | 11.18400 | 23777 ft | 336 kts | 260° |
| 2026-05-06 13:26 | 47.98777 | 11.15322 | 23777 ft | 336 kts | 260° |
| 2026-05-06 13:27 | 47.98602 | 11.11835 | 23781 ft | 336 kts | 259° |
| 2026-05-06 13:27 | 47.98428 | 11.08408 | 23815 ft | 336 kts | 260° |
| 2026-05-06 13:27 | 47.98236 | 11.04944 | 23802 ft | 335 kts | 256° |
| 2026-05-06 13:27 | 47.97751 | 11.01622 | 23794 ft | 331 kts | 250° |
| 2026-05-06 13:28 | 47.97152 | 10.98303 | 23787 ft | 331 kts | 250° |
| 2026-05-06 13:28 | 47.96558 | 10.94982 | 23793 ft | 332 kts | 250° |
| 2026-05-06 13:28 | 47.95963 | 10.91661 | 23784 ft | 332 kts | 250° |
| 2026-05-06 13:28 | 47.95363 | 10.88321 | 23790 ft | 332 kts | 250° |
| 2026-05-06 13:29 | 47.94762 | 10.84988 | 23792 ft | 332 kts | 250° |
| 2026-05-06 13:29 | 47.94160 | 10.81666 | 23792 ft | 332 kts | 250° |
| 2026-05-06 13:29 | 47.93555 | 10.78336 | 23790 ft | 332 kts | 250° |
| 2026-05-06 13:29 | 47.92824 | 10.75139 | 23783 ft | 328 kts | 241° |
| 2026-05-06 13:30 | 47.91692 | 10.72221 | 23792 ft | 324 kts | 232° |
| 2026-05-06 13:30 | 47.90418 | 10.69453 | 23785 ft | 324 kts | 232° |
| 2026-05-06 13:30 | 47.89146 | 10.66678 | 23785 ft | 324 kts | 233° |
| 2026-05-06 13:30 | 47.87880 | 10.63907 | 23782 ft | 324 kts | 233° |
| 2026-05-06 13:31 | 47.86608 | 10.61127 | 23809 ft | 324 kts | 233° |
| 2026-05-06 13:31 | 47.85766 | 10.59288 | 23803 ft | 325 kts | 233° |
| 2026-05-06 13:31 | 47.84337 | 10.56721 | 23808 ft | 322 kts | 219° |
| 2026-05-06 13:31 | 47.81740 | 10.54679 | 23799 ft | 323 kts | 195° |
| 2026-05-06 13:32 | 47.79512 | 10.54211 | 23771 ft | 325 kts | 189° |
| 2026-05-06 13:32 | 47.77262 | 10.53851 | 23768 ft | 325 kts | 188° |
| 2026-05-06 13:32 | 47.75735 | 10.53614 | 23767 ft | 326 kts | 188° |
| 2026-05-06 13:32 | 47.73512 | 10.53272 | 23760 ft | 327 kts | 188° |
| 2026-05-06 13:33 | 47.71252 | 10.52925 | 23761 ft | 327 kts | 188° |
| 2026-05-06 13:33 | 47.68982 | 10.52572 | 23760 ft | 328 kts | 189° |
| 2026-05-06 13:33 | 47.66709 | 10.52212 | 23760 ft | 328 kts | 189° |
| 2026-05-06 13:33 | 47.64450 | 10.51854 | 23761 ft | 328 kts | 189° |
| 2026-05-06 13:34 | 47.62161 | 10.51491 | 23761 ft | 329 kts | 189° |
| 2026-05-06 13:34 | 47.59902 | 10.51131 | 23762 ft | 328 kts | 189° |
| 2026-05-06 13:34 | 47.57613 | 10.50767 | 23755 ft | 329 kts | 189° |
| 2026-05-06 13:34 | 47.55338 | 10.50404 | 23755 ft | 328 kts | 189° |
| 2026-05-06 13:35 | 47.53077 | 10.50046 | 23756 ft | 327 kts | 189° |
| 2026-05-06 13:35 | 47.50848 | 10.49694 | 23767 ft | 328 kts | 190° |
| 2026-05-06 13:35 | 47.48557 | 10.49333 | 23767 ft | 326 kts | 190° |
| 2026-05-06 13:35 | 47.46327 | 10.48984 | 23765 ft | 325 kts | 190° |
| 2026-05-06 13:36 | 47.44091 | 10.48633 | 23767 ft | 325 kts | 190° |
| 2026-05-06 13:36 | 47.41829 | 10.48283 | 23761 ft | 325 kts | 190° |
| 2026-05-06 13:36 | 47.39560 | 10.48066 | 23762 ft | 329 kts | 182° |
| 2026-05-06 13:36 | 47.37271 | 10.48369 | 23773 ft | 332 kts | 179° |
| 2026-05-06 13:37 | 47.34967 | 10.48708 | 23781 ft | 333 kts | 179° |
| 2026-05-06 13:37 | 47.32663 | 10.49043 | 23788 ft | 333 kts | 180° |
| 2026-05-06 13:37 | 47.30360 | 10.49374 | 23780 ft | 332 kts | 180° |
| 2026-05-06 13:37 | 47.28095 | 10.49701 | 23758 ft | 328 kts | 179° |
| 2026-05-06 13:38 | 47.25805 | 10.50033 | 23755 ft | 326 kts | 179° |
| 2026-05-06 13:38 | 47.23547 | 10.50352 | 23766 ft | 328 kts | 180° |
| 2026-05-06 13:38 | 47.21265 | 10.50673 | 23771 ft | 330 kts | 180° |
| 2026-05-06 13:38 | 47.18971 | 10.50998 | 23778 ft | 331 kts | 180° |
| 2026-05-06 13:39 | 47.16711 | 10.51319 | 23783 ft | 331 kts | 180° |
| 2026-05-06 13:39 | 47.14418 | 10.51643 | 23802 ft | 332 kts | 180° |
| 2026-05-06 13:39 | 47.12124 | 10.51967 | 23797 ft | 330 kts | 180° |
| 2026-05-06 13:39 | 47.09842 | 10.52291 | 23795 ft | 330 kts | 180° |
| 2026-05-06 13:40 | 47.07554 | 10.52618 | 23795 ft | 330 kts | 180° |
| 2026-05-06 13:40 | 47.05266 | 10.53081 | 23809 ft | 335 kts | 172° |
| 2026-05-06 13:40 | 47.03027 | 10.54093 | 23820 ft | 336 kts | 169° |
| 2026-05-06 13:40 | 47.00809 | 10.55128 | 23797 ft | 333 kts | 169° |
| 2026-05-06 13:41 | 46.98581 | 10.56143 | 23795 ft | 335 kts | 169° |
| 2026-05-06 13:41 | 46.96353 | 10.57144 | 23813 ft | 335 kts | 169° |
| 2026-05-06 13:41 | 46.94159 | 10.58127 | 23810 ft | 336 kts | 169° |
| 2026-05-06 13:41 | 46.91894 | 10.59142 | 23811 ft | 334 kts | 169° |
| 2026-05-06 13:42 | 46.89700 | 10.60123 | 23814 ft | 335 kts | 169° |
| 2026-05-06 13:42 | 46.87471 | 10.61118 | 23820 ft | 336 kts | 170° |
| 2026-05-06 13:42 | 46.85238 | 10.62120 | 23833 ft | 336 kts | 170° |
| 2026-05-06 13:42 | 46.82998 | 10.63132 | 23837 ft | 336 kts | 170° |
| 2026-05-06 13:43 | 46.80769 | 10.64141 | 23838 ft | 334 kts | 170° |
| 2026-05-06 13:43 | 46.78554 | 10.65141 | 23847 ft | 334 kts | 170° |
| 2026-05-06 13:43 | 46.76364 | 10.66126 | 23856 ft | 334 kts | 170° |
| 2026-05-06 13:43 | 46.74104 | 10.67021 | 23853 ft | 328 kts | 177° |
| 2026-05-06 13:44 | 46.71865 | 10.67218 | 23864 ft | 319 kts | 189° |
| 2026-05-06 13:44 | 46.69732 | 10.66723 | 23862 ft | 311 kts | 199° |
| 2026-05-06 13:44 | 46.67672 | 10.65775 | 23853 ft | 311 kts | 200° |
| 2026-05-06 13:44 | 46.65600 | 10.64848 | 23853 ft | 313 kts | 200° |
| 2026-05-06 13:45 | 46.63509 | 10.63937 | 23868 ft | 313 kts | 200° |
| 2026-05-06 13:45 | 46.59334 | 10.62134 | 23861 ft | 311 kts | 200° |
| 2026-05-06 13:45 | 46.57259 | 10.61236 | 23853 ft | 311 kts | 200° |
| 2026-05-06 13:46 | 46.55179 | 10.60329 | 23866 ft | 313 kts | 200° |
| 2026-05-06 13:46 | 46.53122 | 10.59429 | 23877 ft | 315 kts | 200° |
| 2026-05-06 13:46 | 46.51029 | 10.58515 | 23869 ft | 313 kts | 200° |
| 2026-05-06 13:46 | 46.48942 | 10.57606 | 23872 ft | 313 kts | 200° |
| 2026-05-06 13:47 | 46.46855 | 10.56694 | 23874 ft | 313 kts | 200° |
| 2026-05-06 13:47 | 46.44773 | 10.55782 | 23886 ft | 313 kts | 200° |
| 2026-05-06 13:47 | 46.42692 | 10.54869 | 23894 ft | 313 kts | 200° |
| 2026-05-06 13:47 | 46.40610 | 10.53955 | 23898 ft | 312 kts | 200° |
| 2026-05-06 13:48 | 46.38537 | 10.53050 | 23892 ft | 311 kts | 200° |
| 2026-05-06 13:48 | 46.36461 | 10.52148 | 23895 ft | 312 kts | 200° |
| 2026-05-06 13:48 | 46.34417 | 10.51261 | 23888 ft | 311 kts | 200° |
| 2026-05-06 13:48 | 46.32343 | 10.50360 | 23900 ft | 311 kts | 200° |
| 2026-05-06 13:49 | 46.30273 | 10.49458 | 23899 ft | 311 kts | 200° |
| 2026-05-06 13:49 | 46.28211 | 10.48565 | 23891 ft | 309 kts | 200° |
| 2026-05-06 13:49 | 46.26150 | 10.47672 | 23892 ft | 310 kts | 200° |
| 2026-05-06 13:49 | 46.24082 | 10.46775 | 23895 ft | 310 kts | 200° |
| 2026-05-06 13:50 | 46.22147 | 10.45500 | 23884 ft | 304 kts | 216° |
| 2026-05-06 13:50 | 46.20654 | 10.43351 | 23873 ft | 306 kts | 234° |
| 2026-05-06 13:50 | 46.19569 | 10.40689 | 23924 ft | 309 kts | 237° |
| 2026-05-06 13:50 | 46.18514 | 10.38027 | 23901 ft | 311 kts | 237° |
| 2026-05-06 13:51 | 46.17438 | 10.35307 | 23902 ft | 312 kts | 237° |
| 2026-05-06 13:51 | 46.16363 | 10.32593 | 23901 ft | 310 kts | 237° |
| 2026-05-06 13:51 | 46.15291 | 10.29891 | 23900 ft | 310 kts | 237° |
| 2026-05-06 13:51 | 46.14220 | 10.27196 | 23903 ft | 310 kts | 237° |
| 2026-05-06 13:52 | 46.13146 | 10.24500 | 23906 ft | 311 kts | 237° |
| 2026-05-06 13:52 | 46.12065 | 10.21791 | 23902 ft | 311 kts | 237° |
| 2026-05-06 13:52 | 46.10990 | 10.19102 | 23894 ft | 309 kts | 237° |
| 2026-05-06 13:52 | 46.09935 | 10.16461 | 23894 ft | 308 kts | 237° |
| 2026-05-06 13:53 | 46.08869 | 10.13796 | 23884 ft | 308 kts | 237° |
| 2026-05-06 13:53 | 46.07793 | 10.11114 | 23879 ft | 308 kts | 237° |
| 2026-05-06 13:53 | 46.06724 | 10.08446 | 23883 ft | 309 kts | 237° |
| 2026-05-06 13:53 | 46.05650 | 10.05765 | 23883 ft | 309 kts | 237° |
| 2026-05-06 13:54 | 46.04575 | 10.03085 | 23886 ft | 309 kts | 237° |
| 2026-05-06 13:54 | 46.03496 | 10.00404 | 23890 ft | 310 kts | 237° |
| 2026-05-06 13:54 | 46.02417 | 9.97725 | 23894 ft | 310 kts | 237° |
| 2026-05-06 13:54 | 46.01349 | 9.95078 | 23894 ft | 309 kts | 237° |
| 2026-05-06 13:55 | 46.00269 | 9.92399 | 23915 ft | 310 kts | 236° |
| 2026-05-06 13:55 | 45.99188 | 9.89723 | 23912 ft | 309 kts | 237° |
| 2026-05-06 13:55 | 45.98110 | 9.87056 | 23919 ft | 309 kts | 236° |
| 2026-05-06 13:55 | 45.97031 | 9.84386 | 23904 ft | 308 kts | 236° |
| 2026-05-06 13:56 | 45.95956 | 9.81733 | 23715 ft | 304 kts | 237° |
| 2026-05-06 13:56 | 45.94896 | 9.79115 | 23477 ft | 302 kts | 237° |
| 2026-05-06 13:56 | 45.93834 | 9.76499 | 23178 ft | 302 kts | 237° |
| 2026-05-06 13:56 | 45.92794 | 9.73938 | 22913 ft | 301 kts | 237° |
| 2026-05-06 13:57 | 45.91745 | 9.71355 | 22645 ft | 297 kts | 237° |
| 2026-05-06 13:57 | 45.90713 | 9.68814 | 22284 ft | 293 kts | 237° |
| 2026-05-06 13:57 | 45.89698 | 9.66314 | 21912 ft | 288 kts | 237° |
| 2026-05-06 13:57 | 45.88694 | 9.63846 | 21552 ft | 285 kts | 237° |
| 2026-05-06 13:58 | 45.87697 | 9.61402 | 21188 ft | 281 kts | 236° |
| 2026-05-06 13:58 | 45.86713 | 9.58998 | 20797 ft | 280 kts | 236° |
| 2026-05-06 13:58 | 45.85730 | 9.56598 | 20407 ft | 278 kts | 237° |
| 2026-05-06 13:58 | 45.84775 | 9.54179 | 20004 ft | 279 kts | 239° |
| 2026-05-06 13:59 | 45.83907 | 9.51731 | 19616 ft | 279 kts | 240° |
| 2026-05-06 13:59 | 45.83062 | 9.49226 | 19223 ft | 279 kts | 241° |
| 2026-05-06 13:59 | 45.82227 | 9.46732 | 18857 ft | 278 kts | 241° |
| 2026-05-06 13:59 | 45.81386 | 9.44229 | 18466 ft | 279 kts | 241° |
| 2026-05-06 14:00 | 45.80535 | 9.41717 | 18074 ft | 281 kts | 241° |
| 2026-05-06 14:00 | 45.79676 | 9.39199 | 17669 ft | 281 kts | 241° |
| 2026-05-06 14:00 | 45.78815 | 9.36692 | 17297 ft | 283 kts | 241° |
| 2026-05-06 14:00 | 45.77950 | 9.34182 | 16919 ft | 283 kts | 241° |
| 2026-05-06 14:01 | 45.77078 | 9.31654 | 16550 ft | 282 kts | 241° |
| 2026-05-06 14:01 | 45.76210 | 9.29142 | 16178 ft | 281 kts | 241° |
| 2026-05-06 14:01 | 45.75343 | 9.26637 | 15821 ft | 280 kts | 241° |
| 2026-05-06 14:01 | 45.74477 | 9.24138 | 15463 ft | 281 kts | 241° |
| 2026-05-06 14:02 | 45.73676 | 9.21826 | 15131 ft | 281 kts | 241° |
| 2026-05-06 14:02 | 45.72777 | 9.19237 | 14765 ft | 280 kts | 241° |
| 2026-05-06 14:02 | 45.71908 | 9.16743 | 14413 ft | 280 kts | 241° |
| 2026-05-06 14:02 | 45.71050 | 9.14282 | 14056 ft | 280 kts | 241° |
| 2026-05-06 14:03 | 45.70182 | 9.11793 | 13687 ft | 280 kts | 241° |
| 2026-05-06 14:03 | 45.69315 | 9.09300 | 13296 ft | 280 kts | 241° |
| 2026-05-06 14:03 | 45.68453 | 9.06817 | 12924 ft | 278 kts | 241° |
| 2026-05-06 14:03 | 45.67586 | 9.04334 | 12458 ft | 280 kts | 241° |
| 2026-05-06 14:04 | 45.66716 | 9.01845 | 12058 ft | 280 kts | 241° |
| 2026-05-06 14:04 | 45.65846 | 8.99359 | 11674 ft | 279 kts | 241° |
| 2026-05-06 14:04 | 45.65091 | 8.97204 | 11358 ft | 278 kts | 241° |
| 2026-05-06 14:04 | 45.64225 | 8.94739 | 10977 ft | 277 kts | 241° |
| 2026-05-06 14:05 | 45.63392 | 8.92370 | 10796 ft | 262 kts | 241° |
| 2026-05-06 14:05 | 45.62414 | 8.90267 | 10395 ft | 250 kts | 223° |
| 2026-05-06 14:05 | 45.60988 | 8.88899 | 9891 ft | 247 kts | 202° |
| 2026-05-06 14:05 | 45.59309 | 8.88441 | 9306 ft | 249 kts | 180° |
| 2026-05-06 14:06 | 45.57587 | 8.88821 | 8918 ft | 251 kts | 171° |
| 2026-05-06 14:06 | 45.55872 | 8.89297 | 8555 ft | 250 kts | 172° |
| 2026-05-06 14:06 | 45.54169 | 8.89764 | 8194 ft | 249 kts | 172° |
| 2026-05-06 14:06 | 45.52474 | 8.90225 | 7819 ft | 247 kts | 172° |
| 2026-05-06 14:07 | 45.50787 | 8.90681 | 7409 ft | 245 kts | 172° |
| 2026-05-06 14:07 | 45.49142 | 8.91127 | 6884 ft | 243 kts | 172° |
| 2026-05-06 14:07 | 45.47486 | 8.91581 | 6374 ft | 241 kts | 171° |
| 2026-05-06 14:07 | 45.45840 | 8.92029 | 5848 ft | 242 kts | 171° |
| 2026-05-06 14:08 | 45.44192 | 8.92476 | 5591 ft | 241 kts | 172° |
| 2026-05-06 14:08 | 45.42572 | 8.92917 | 5442 ft | 232 kts | 171° |
| 2026-05-06 14:08 | 45.41006 | 8.93342 | 5230 ft | 227 kts | 171° |
| 2026-05-06 14:08 | 45.39463 | 8.93759 | 4885 ft | 225 kts | 170° |
| 2026-05-06 14:09 | 45.37926 | 8.94178 | 4549 ft | 223 kts | 172° |
| 2026-05-06 14:09 | 45.36441 | 8.94583 | 4273 ft | 219 kts | 171° |
| 2026-05-06 14:09 | 45.34943 | 8.94990 | 3925 ft | 218 kts | 171° |
| 2026-05-06 14:09 | 45.33457 | 8.95390 | 3569 ft | 217 kts | 171° |
| 2026-05-06 14:10 | 45.31982 | 8.95785 | 3410 ft | 217 kts | 172° |
| 2026-05-06 14:10 | 45.30495 | 8.96183 | 3276 ft | 218 kts | 171° |
| 2026-05-06 14:10 | 45.29000 | 8.96586 | 3152 ft | 219 kts | 171° |
| 2026-05-06 14:10 | 45.27492 | 8.96995 | 2969 ft | 221 kts | 171° |
| 2026-05-06 14:11 | 45.25984 | 8.97407 | 2848 ft | 220 kts | 171° |
| 2026-05-06 14:11 | 45.24483 | 8.97819 | 2908 ft | 218 kts | 171° |
| 2026-05-06 14:11 | 45.23021 | 8.98218 | 2986 ft | 210 kts | 171° |
| 2026-05-06 14:11 | 45.21633 | 8.98597 | 3002 ft | 198 kts | 172° |
| 2026-05-06 14:12 | 45.20295 | 8.98957 | 3005 ft | 195 kts | 172° |
| 2026-05-06 14:12 | 45.18965 | 8.99313 | 3004 ft | 195 kts | 171° |
| 2026-05-06 14:12 | 45.17633 | 8.99669 | 3003 ft | 195 kts | 171° |
| 2026-05-06 14:12 | 45.16298 | 9.00024 | 3002 ft | 195 kts | 171° |
| 2026-05-06 14:13 | 45.14960 | 9.00380 | 3001 ft | 196 kts | 171° |
| 2026-05-06 14:13 | 45.13608 | 9.00413 | 3003 ft | 195 kts | 196° |
| 2026-05-06 14:13 | 45.12451 | 8.99495 | 3006 ft | 198 kts | 224° |
| 2026-05-06 14:13 | 45.11787 | 8.97757 | 3006 ft | 210 kts | 255° |
| 2026-05-06 14:14 | 45.11839 | 8.95653 | 3008 ft | 218 kts | 272° |
| 2026-05-06 14:14 | 45.12004 | 8.93518 | 3007 ft | 218 kts | 270° |
| 2026-05-06 14:14 | 45.12137 | 8.91380 | 3006 ft | 217 kts | 270° |
| 2026-05-06 14:14 | 45.12273 | 8.89249 | 3006 ft | 218 kts | 274° |
| 2026-05-06 14:15 | 45.12896 | 8.87266 | 3005 ft | 229 kts | 309° |
| 2026-05-06 14:15 | 45.14278 | 8.86138 | 3022 ft | 232 kts | 346° |
| 2026-05-06 14:15 | 45.15837 | 8.85710 | 3008 ft | 226 kts | 349° |
| 2026-05-06 14:15 | 45.17369 | 8.85306 | 2999 ft | 222 kts | 350° |
| 2026-05-06 14:16 | 45.18874 | 8.84909 | 3002 ft | 223 kts | 349° |
| 2026-05-06 14:16 | 45.20379 | 8.84507 | 3000 ft | 215 kts | 348° |
| 2026-05-06 14:16 | 45.21816 | 8.84121 | 2999 ft | 209 kts | 349° |
| 2026-05-06 14:16 | 45.23289 | 8.83724 | 3009 ft | 220 kts | 349° |
| 2026-05-06 14:17 | 45.24801 | 8.83320 | 3069 ft | 221 kts | 351° |
| 2026-05-06 14:17 | 45.26337 | 8.83225 | 3069 ft | 222 kts | 356° |
| 2026-05-06 14:17 | 45.27872 | 8.82976 | 3070 ft | 222 kts | 351° |
| 2026-05-06 14:17 | 45.29393 | 8.82584 | 3071 ft | 222 kts | 348° |
| 2026-05-06 14:18 | 45.30892 | 8.82172 | 3071 ft | 223 kts | 349° |
| 2026-05-06 14:18 | 45.32405 | 8.81757 | 3072 ft | 217 kts | 348° |
| 2026-05-06 14:18 | 45.33851 | 8.81362 | 3073 ft | 207 kts | 349° |
| 2026-05-06 14:18 | 45.35246 | 8.80981 | 3074 ft | 205 kts | 348° |
| 2026-05-06 14:19 | 45.36642 | 8.80599 | 3091 ft | 204 kts | 349° |
| 2026-05-06 14:19 | 45.38036 | 8.80218 | 3080 ft | 203 kts | 348° |
| 2026-05-06 14:19 | 45.39426 | 8.79837 | 3078 ft | 204 kts | 348° |
| 2026-05-06 14:19 | 45.40808 | 8.79459 | 3077 ft | 203 kts | 348° |
| 2026-05-06 14:20 | 45.42189 | 8.79081 | 3074 ft | 201 kts | 348° |
| 2026-05-06 14:20 | 45.43542 | 8.78710 | 3027 ft | 202 kts | 349° |
| 2026-05-06 14:20 | 45.44914 | 8.78334 | 3030 ft | 199 kts | 349° |
| 2026-05-06 14:20 | 45.46277 | 8.77960 | 3031 ft | 199 kts | 349° |
| 2026-05-06 14:21 | 45.47632 | 8.77588 | 3031 ft | 198 kts | 348° |
| 2026-05-06 14:21 | 45.48983 | 8.77217 | 3038 ft | 196 kts | 349° |
| 2026-05-06 14:21 | 45.50258 | 8.76867 | 2974 ft | 178 kts | 349° |
| 2026-05-06 14:21 | 45.51433 | 8.76544 | 2765 ft | 167 kts | 349° |
| 2026-05-06 14:22 | 45.52537 | 8.76240 | 2546 ft | 157 kts | 349° |
| 2026-05-06 14:22 | 45.53569 | 8.75956 | 2359 ft | 149 kts | 350° |
| 2026-05-06 14:22 | 45.54573 | 8.75679 | 2160 ft | 145 kts | 350° |
| 2026-05-06 14:22 | 45.55554 | 8.75409 | 1965 ft | 143 kts | 351° |
| 2026-05-06 14:23 | 45.56524 | 8.75142 | 1747 ft | 141 kts | 351° |
| 2026-05-06 14:23 | 45.57485 | 8.74878 | 1569 ft | 140 kts | 351° |
| 2026-05-06 14:23 | 45.58426 | 8.74618 | 1407 ft | 136 kts | 349° |
| 2026-05-06 14:23 | 45.59340 | 8.74367 | 1194 ft | 133 kts | 349° |
| 2026-05-06 14:24 | 45.60226 | 8.74112 | 1045 ft | 127 kts | 348° |
| 2026-05-06 14:24 | 45.61096 | 8.73870 | 885 ft | 128 kts | 348° |
| 2026-05-06 14:24 | 45.61951 | 8.73639 | 761 ft | 121 kts | 348° |
| 2026-05-06 14:24 | 45.62669 | 8.73447 | 742 ft | 83 kts | 349° |
| 2026-05-06 14:25 | 45.63067 | 8.73333 | 737 ft | 35 kts | 348° |
| 2026-05-06 14:25 | 45.63295 | 8.73273 | 738 ft | 32 kts | 349° |
| 2026-05-06 14:25 | 45.63494 | 8.73218 | 742 ft | 27 kts | 349° |
| 2026-05-06 14:25 | 45.63668 | 8.73120 | 742 ft | 27 kts | 328° |
| 2026-05-06 14:26 | 45.63806 | 8.72932 | 741 ft | 28 kts | 306° |
| 2026-05-06 14:26 | 45.63913 | 8.72710 | 741 ft | 22 kts | 304° |
| 2026-05-06 14:26 | 45.63949 | 8.72506 | 740 ft | 23 kts | 255° |
| 2026-05-06 14:26 | 45.63920 | 8.72276 | 740 ft | 25 kts | 263° |
| 2026-05-06 14:27 | 45.63911 | 8.72045 | 740 ft | 24 kts | 266° |
| 2026-05-06 14:27 | 45.63862 | 8.71844 | 741 ft | 21 kts | 217° |
| 2026-05-06 14:27 | 45.63716 | 8.71848 | 741 ft | 21 kts | 169° |
| 2026-05-06 14:27 | 45.63574 | 8.71888 | 741 ft | 21 kts | 169° |
| 2026-05-06 14:28 | 45.63435 | 8.71925 | 741 ft | 20 kts | 169° |
| 2026-05-06 14:28 | 45.63319 | 8.71925 | 740 ft | 15 kts | 225° |
| 2026-05-06 14:28 | 45.63292 | 8.71783 | 741 ft | 15 kts | 259° |
| 2026-05-06 14:28 | 45.63238 | 8.71670 | 741 ft | 15 kts | 182° |
| 2026-05-06 14:29 | 45.63162 | 8.71688 | 740 ft | 9 kts | 169° |
| 2026-05-06 14:29 | 45.63068 | 8.71714 | 741 ft | 17 kts | 169° |
| 2026-05-06 14:29 | 45.62956 | 8.71745 | 741 ft | 16 kts | 169° |
| 2026-05-06 14:29 | 45.62850 | 8.71774 | 741 ft | 17 kts | 169° |
| 2026-05-06 14:30 | 45.62719 | 8.71810 | 741 ft | 15 kts | 169° |
| 2026-05-06 14:30 | 45.62644 | 8.71788 | 741 ft | 11 kts | 257° |
| 2026-05-06 14:30 | 45.62630 | 8.71683 | 741 ft | 10 kts | 259° |
| 2026-05-06 14:30 | 45.62615 | 8.71591 | 741 ft | 8 kts | 239° |
| 2026-05-06 14:31 | 45.62573 | 8.71596 | 741 ft | 6 kts | 171° |
| 2026-05-06 14:31 | 45.62542 | 8.71605 | 741 ft | 2 kts | 169° |
| 2026-05-06 14:31 | 45.62538 | 8.71606 | 741 ft | 0 kts | 169° |